Terminal Aerodrome Forecast
Issued by NWS Wilmington, NC

Home | Current Version | Previous Version | Text Only | Print | Product List | Glossary On
Versions: 1 2 3 4 5 6 7 8 9 10 11 12 13 14 15 16
400
FTUS42 KILM 041136
TAFFLO
TAF
KFLO 041136Z 0412/0512 03006KT P6SM VCSH OVC070
      TEMPO 0412/0414 6SM -RA OVC050
     FM041900 07007KT 6SM -RA SCT015 BKN025 OVC070
     FM042300 07008KT 4SM -RA SCT003 BKN020 OVC050
     FM050500 03006KT 3SM -RA SCT003 BKN007
     FM050800 36004KT 4SM -RA BR BKN003 OVC007=

USA.gov is the U.S. government's official web portal to all federal, state and local government web resources and services.